Rechercher aéroport 
image banner adimage banner ad
image banner ad

DAAD - Bou Saada

Situé à Bou Saada, Algeria

ICAO - DAAD, IATA - BUJ

Données fournies par Airmate  

Information générale

Coordonnées: N35°19'53" E4°12'16"
Élévation : 1505 feet MSL.
 
Voir autres Aéroports à M'Sila Province

Données opérationnelles

Accessible au public
Heure actuelle UTC:
Heure actuelle locale:
Météo
TAF: TAF DAAD 311700Z 3118/0103 VRB02KT CAVOK
Voir NOTAMs / SUP AIP / TFR affectant cet aéroport [VIEW]
Fréquences de communication: [VIEW]

Pistes:

Identifiant RWYQFULongueur (ft)Largeur (ft)SurfaceLDA (ft)
0442°721898ASP
22222°721898

Coordonnées de l'aéroport

Adresse: Bou Saada Algeria

Vue satellite de DAAD